Pacolet, SC (29372)

8:39 AM EST on February 27, 2017 (GMT -0500)
Eastside | | Change Station

Elev 692 ft 34.94 °N, 81.86 °W | Updated 12 minutes ago

Partly Cloudy
Partly Cloudy
44.5 °F
Feels Like 44 °F
N
0.0
Wind Variable Wind from SSE
Gusts 4.0 mph

Today
High -- | Low -- °F
--% Chance of Precip.
Yesterday
High -- | Low -- °F
Precip. -- in
Pressure 30.37 in
Visibility 10.0 miles
Clouds Clear
Windchill 44 °F
Dew Point 32 °F
Humidity 63%
Rainfall 0.00 in
Snow Depth Not available.
6:58 AM 6:21 PM
New Moon, 1% visible
METAR KSPA 271335Z AUTO 10003KT 10SM CLR 08/M03 A3037 RMK AO2
Pressure 30.37 in
Visibility 10.0 miles
Clouds Clear
Windchill 44 °F
Dew Point 32 °F
Humidity 63%
Rainfall 0.00 in
Snow Depth Not available.
6:58 AM 6:21 PM
New Moon, 1% visible
METAR KSPA 271335Z AUTO 10003KT 10SM CLR 08/M03 A3037 RMK AO2

Get Your Daily Forecast Email!

Thanks for signing up!

Be on the lookout for a verification email in your inbox.

You'll start receiving the daily forecast at 8 AM.

×

10-Day Weather Forecast

Almanac

Astronomy

Feb. 27, 2017 Rise Set
Actual Time
Civil Twilight
Nautical Twilight
Astronomical Twilight
Moon
Length of Visible Light
Length of Day
Tomorrow will be .
, % of the Moon is Illuminated

Today's Extremes

State Highs State Lows

Community

WunderPhotos

Upload Photos

1,962,540 photos uploaded!

WunderBlog® & News

Nearby

Air Quality

  Air Quality AQ Index Pollutant
Not available.

Snow Depth

Station Depth Elevation

Earthquake Activity

City Distance Mag. Time & Date
Minimum magnitude displayed is 2.5.

Coastal Water Temperatures

Place Temperature

Stations

Nearby Weather Stations

Station Location Temp. Windchill Dew Point Humidity Wind Precip. Elev Updated Type
                   

Watches & Warnings

There are currently no watches in effect.